PWSweather.com
Personal Weather Stations
Station Observations
SHAHALMS1
Eftra, Falkenberg, HA

EftraFalkenberg, HA

Lat: 56.85, Lon: 12.65

Elevation: 140

Station Type:

http://hem.passagen.se/risarp101

High Low Average
Temperature 78.8°F26.0°C 61.2°F16.2°C 69.0°F20.6°C
Dew Point 65.1°F18.4°C 53.4°F11.9°C 58.7°F14.8°C
Winds 12.9 mph 20.8 kmh Calm Calm 4.0 mph SW6.4 kmh SW
Wind Gusts 31.9 mph51.3 kmh -- 11.0 mph17.7 kmh
Humidity 86% 54% 71%
Pressure 30.18 in1022.0 mb 30.04 in1017.3 mb -
Precipitation 0.00 in0.0 mm - -
Hour Temp Dew Point Humidity Winds Wind Gusts Pressure Precip Precip Rate Daily Precip Total
12:00 AM 66.7°F19.3°C 54.2°F12.3°C 64% 8.3 mph ESE13.4 kmh ESE 14.0 mph22.5 kmh 30.18 in1022.0 mb 0.00 in0.0 mm 0.00 in0.0 mm 0.00 in0.0 mm
12:10 AM 66.7°F19.3°C 54.2°F12.3°C 64% 7.7 mph ESE12.4 kmh ESE 14.0 mph22.5 kmh 30.18 in1022.0 mb 0.00 in0.0 mm 0.00 in0.0 mm 0.00 in0.0 mm
12:20 AM 66.6°F19.2°C 54.0°F12.2°C 64% 8.1 mph ESE13.0 kmh ESE 14.0 mph22.5 kmh 30.18 in1022.0 mb 0.00 in0.0 mm 0.00 in0.0 mm 0.00 in0.0 mm
12:30 AM 66.4°F19.1°C 53.8°F12.1°C 64% 7.6 mph ESE12.2 kmh ESE 13.6 mph21.9 kmh 30.18 in1022.0 mb 0.00 in0.0 mm 0.00 in0.0 mm 0.00 in0.0 mm
12:40 AM 66.2°F19.0°C 53.7°F12.1°C 64% 6.7 mph ESE10.8 kmh ESE 12.5 mph20.1 kmh 30.18 in1022.0 mb 0.00 in0.0 mm 0.00 in0.0 mm 0.00 in0.0 mm
12:50 AM 65.8°F18.8°C 54.2°F12.3°C 66% 6.7 mph ESE10.8 kmh ESE 11.8 mph19.0 kmh 30.15 in1021.0 mb 0.00 in0.0 mm 0.00 in0.0 mm 0.00 in0.0 mm
01:00 AM 65.5°F18.6°C 54.2°F12.3°C 67% 6.3 mph ESE10.1 kmh ESE 14.0 mph22.5 kmh 30.15 in1021.0 mb 0.00 in0.0 mm 0.00 in0.0 mm 0.00 in0.0 mm
01:10 AM 65.1°F18.4°C 53.9°F12.2°C 67% 5.9 mph ESE9.5 kmh ESE 10.0 mph16.1 kmh 30.15 in1021.0 mb 0.00 in0.0 mm 0.00 in0.0 mm 0.00 in0.0 mm
01:20 AM 64.8°F18.2°C 53.5°F11.9°C 67% 3.5 mph ESE5.6 kmh ESE 9.3 mph15.0 kmh 30.15 in1021.0 mb 0.00 in0.0 mm 0.00 in0.0 mm 0.00 in0.0 mm
01:30 AM 64.2°F17.9°C 53.4°F11.9°C 68% 5.6 mph ESE9.0 kmh ESE 9.7 mph15.6 kmh 30.15 in1021.0 mb 0.00 in0.0 mm 0.00 in0.0 mm 0.00 in0.0 mm
01:40 AM 64.0°F17.8°C 54.1°F12.3°C 70% 6.4 mph ESE10.3 kmh ESE 11.1 mph17.9 kmh 30.15 in1021.0 mb 0.00 in0.0 mm 0.00 in0.0 mm 0.00 in0.0 mm
01:50 AM 64.0°F17.8°C 54.4°F12.4°C 71% 6.4 mph ESE10.3 kmh ESE 12.5 mph20.1 kmh 30.15 in1021.0 mb 0.00 in0.0 mm 0.00 in0.0 mm 0.00 in0.0 mm
02:00 AM 64.2°F17.9°C 54.6°F12.6°C 71% 5.7 mph ESE9.2 kmh ESE 11.8 mph19.0 kmh 30.15 in1021.0 mb 0.00 in0.0 mm 0.00 in0.0 mm 0.00 in0.0 mm
02:10 AM 64.2°F17.9°C 54.6°F12.6°C 71% 0.7 mph N1.1 kmh N 6.1 mph9.8 kmh 30.15 in1021.0 mb 0.00 in0.0 mm 0.00 in0.0 mm 0.00 in0.0 mm
02:20 AM 63.9°F17.7°C 54.3°F12.4°C 71% 0.3 mph N0.5 kmh N 4.7 mph7.6 kmh 30.15 in1021.0 mb 0.00 in0.0 mm 0.00 in0.0 mm 0.00 in0.0 mm
02:30 AM 63.1°F17.3°C 54.0°F12.2°C 72% Calm Calm -- 30.15 in1021.0 mb 0.00 in0.0 mm 0.00 in0.0 mm 0.00 in0.0 mm
02:40 AM 62.4°F16.9°C 54.0°F12.2°C 74% Calm Calm -- 30.15 in1021.0 mb 0.00 in0.0 mm 0.00 in0.0 mm 0.00 in0.0 mm
02:50 AM 61.9°F16.6°C 54.2°F12.3°C 76% 1.1 mph SE1.8 kmh SE 6.4 mph10.3 kmh 30.15 in1021.0 mb 0.00 in0.0 mm 0.00 in0.0 mm 0.00 in0.0 mm
03:00 AM 61.5°F16.4°C 54.2°F12.3°C 77% 3.0 mph SE4.8 kmh SE 6.8 mph10.9 kmh 30.15 in1021.0 mb 0.00 in0.0 mm 0.00 in0.0 mm 0.00 in0.0 mm
03:10 AM 61.3°F16.3°C 54.4°F12.4°C 78% 0.7 mph SE1.1 kmh SE 5.7 mph9.2 kmh 30.15 in1021.0 mb 0.00 in0.0 mm 0.00 in0.0 mm 0.00 in0.0 mm
03:20 AM 61.2°F16.2°C 54.2°F12.3°C 78% 1.6 mph SE2.6 kmh SE 4.7 mph7.6 kmh 30.12 in1020.0 mb 0.00 in0.0 mm 0.00 in0.0 mm 0.00 in0.0 mm
03:30 AM 61.3°F16.3°C 54.8°F12.7°C 79% 0.8 mph SE1.3 kmh SE 4.7 mph7.6 kmh 30.12 in1020.0 mb 0.00 in0.0 mm 0.00 in0.0 mm 0.00 in0.0 mm
03:40 AM 61.5°F16.4°C 54.9°F12.7°C 79% 2.5 mph SE4.0 kmh SE 6.8 mph10.9 kmh 30.12 in1020.0 mb 0.00 in0.0 mm 0.00 in0.0 mm 0.00 in0.0 mm
03:50 AM 61.3°F16.3°C 54.8°F12.7°C 79% 2.5 mph SE4.0 kmh SE 5.7 mph9.2 kmh 30.09 in1019.0 mb 0.00 in0.0 mm 0.00 in0.0 mm 0.00 in0.0 mm
04:00 AM 61.2°F16.2°C 54.9°F12.7°C 80% Calm Calm -- 30.15 in1021.0 mb 0.00 in0.0 mm 0.00 in0.0 mm 0.00 in0.0 mm
04:10 AM 61.2°F16.2°C 54.9°F12.7°C 80% 1.3 mph ESE2.1 kmh ESE 5.0 mph8.0 kmh 30.15 in1021.0 mb 0.00 in0.0 mm 0.00 in0.0 mm 0.00 in0.0 mm
04:20 AM 61.2°F16.2°C 54.9°F12.7°C 80% 1.4 mph ESE2.3 kmh ESE 6.4 mph10.3 kmh 30.12 in1020.0 mb 0.00 in0.0 mm 0.00 in0.0 mm 0.00 in0.0 mm
04:30 AM 61.2°F16.2°C 55.6°F13.1°C 82% 2.5 mph SE4.0 kmh SE 6.8 mph10.9 kmh 30.12 in1020.0 mb 0.00 in0.0 mm 0.00 in0.0 mm 0.00 in0.0 mm
04:40 AM 61.5°F16.4°C 56.0°F13.3°C 82% 1.4 mph ESE2.3 kmh ESE 6.4 mph10.3 kmh 30.12 in1020.0 mb 0.00 in0.0 mm 0.00 in0.0 mm 0.00 in0.0 mm
04:50 AM 61.7°F16.5°C 56.1°F13.4°C 82% Calm Calm -- 30.12 in1020.0 mb 0.00 in0.0 mm 0.00 in0.0 mm 0.00 in0.0 mm
05:00 AM 61.9°F16.6°C 56.3°F13.5°C 82% 1.1 mph SE1.8 kmh SE 6.4 mph10.3 kmh 30.12 in1020.0 mb 0.00 in0.0 mm 0.00 in0.0 mm 0.00 in0.0 mm
05:10 AM 62.2°F16.8°C 56.7°F13.7°C 82% 0.8 mph E1.3 kmh E 5.0 mph8.0 kmh 30.12 in1020.0 mb 0.00 in0.0 mm 0.00 in0.0 mm 0.00 in0.0 mm
05:20 AM 63.0°F17.2°C 57.4°F14.1°C 82% 2.6 mph E4.2 kmh E 6.1 mph9.8 kmh 30.12 in1020.0 mb 0.00 in0.0 mm 0.00 in0.0 mm 0.00 in0.0 mm
05:30 AM 63.7°F17.6°C 57.7°F14.3°C 81% 1.6 mph E2.6 kmh E 5.7 mph9.2 kmh 30.09 in1019.0 mb 0.00 in0.0 mm 0.00 in0.0 mm 0.00 in0.0 mm
05:40 AM 64.4°F18.0°C 58.4°F14.7°C 81% 1.1 mph E1.8 kmh E 6.8 mph10.9 kmh 30.09 in1019.0 mb 0.00 in0.0 mm 0.00 in0.0 mm 0.00 in0.0 mm
05:50 AM 64.9°F18.3°C 58.3°F14.6°C 79% 3.8 mph E6.1 kmh E 7.9 mph12.7 kmh 30.09 in1019.0 mb 0.00 in0.0 mm 0.00 in0.0 mm 0.00 in0.0 mm
06:00 AM 65.5°F18.6°C 58.8°F14.9°C 79% 2.4 mph E3.9 kmh E 6.8 mph10.9 kmh 30.09 in1019.0 mb 0.00 in0.0 mm 0.00 in0.0 mm 0.00 in0.0 mm
06:10 AM 66.0°F18.9°C 59.3°F15.2°C 79% 0.4 mph E0.6 kmh E 6.4 mph10.3 kmh 30.09 in1019.0 mb 0.00 in0.0 mm 0.00 in0.0 mm 0.00 in0.0 mm
06:20 AM 66.6°F19.2°C 59.5°F15.3°C 78% Calm Calm -- 30.09 in1019.0 mb 0.00 in0.0 mm 0.00 in0.0 mm 0.00 in0.0 mm
06:30 AM 67.1°F19.5°C 59.6°F15.3°C 77% 0.8 mph E1.3 kmh E 6.4 mph10.3 kmh 30.09 in1019.0 mb 0.00 in0.0 mm 0.00 in0.0 mm 0.00 in0.0 mm
06:40 AM 67.5°F19.7°C 60.0°F15.6°C 77% 1.0 mph E1.6 kmh E 5.7 mph9.2 kmh 30.09 in1019.0 mb 0.00 in0.0 mm 0.00 in0.0 mm 0.00 in0.0 mm
06:50 AM 67.8°F19.9°C 60.0°F15.6°C 76% 0.7 mph E1.1 kmh E 3.6 mph5.8 kmh 30.07 in1018.3 mb 0.00 in0.0 mm 0.00 in0.0 mm 0.00 in0.0 mm
07:00 AM 68.2°F20.1°C 60.3°F15.7°C 76% 0.1 mph ENE0.2 kmh ENE 3.9 mph6.3 kmh 30.07 in1018.3 mb 0.00 in0.0 mm 0.00 in0.0 mm 0.00 in0.0 mm
07:10 AM 68.7°F20.4°C 60.5°F15.8°C 75% 0.4 mph E0.6 kmh E 3.9 mph6.3 kmh 30.07 in1018.3 mb 0.00 in0.0 mm 0.00 in0.0 mm 0.00 in0.0 mm
07:20 AM 69.3°F20.7°C 61.0°F16.1°C 75% 1.2 mph E1.9 kmh E 4.7 mph7.6 kmh 30.07 in1018.3 mb 0.00 in0.0 mm 0.00 in0.0 mm 0.00 in0.0 mm
07:30 AM 70.0°F21.1°C 61.3°F16.3°C 74% 0.1 mph E0.2 kmh E 3.2 mph5.1 kmh 30.04 in1017.3 mb 0.00 in0.0 mm 0.00 in0.0 mm 0.00 in0.0 mm
07:40 AM 71.4°F21.9°C 61.9°F16.6°C 72% Calm Calm -- 30.04 in1017.3 mb 0.00 in0.0 mm 0.00 in0.0 mm 0.00 in0.0 mm
07:50 AM 72.9°F22.7°C 60.4°F15.8°C 65% 1.2 mph SSE1.9 kmh SSE 6.8 mph10.9 kmh 30.07 in1018.3 mb 0.00 in0.0 mm 0.00 in0.0 mm 0.00 in0.0 mm
08:00 AM 73.8°F23.2°C 59.9°F15.5°C 62% 3.5 mph S5.6 kmh S 7.5 mph12.1 kmh 30.04 in1017.3 mb 0.00 in0.0 mm 0.00 in0.0 mm 0.00 in0.0 mm
08:10 AM 75.0°F23.9°C 60.2°F15.7°C 60% 2.1 mph S3.4 kmh S 6.4 mph10.3 kmh 30.04 in1017.3 mb 0.00 in0.0 mm 0.00 in0.0 mm 0.00 in0.0 mm
08:20 AM 75.9°F24.4°C 61.0°F16.1°C 60% 2.6 mph SSE4.2 kmh SSE 6.8 mph10.9 kmh 30.04 in1017.3 mb 0.00 in0.0 mm 0.00 in0.0 mm 0.00 in0.0 mm
08:30 AM 77.0°F25.0°C 60.6°F15.9°C 57% 1.9 mph SSE3.1 kmh SSE 9.7 mph15.6 kmh 30.07 in1018.3 mb 0.00 in0.0 mm 0.00 in0.0 mm 0.00 in0.0 mm
08:40 AM 77.7°F25.4°C 60.8°F16.0°C 56% 3.2 mph SW5.1 kmh SW 7.9 mph12.7 kmh 30.07 in1018.3 mb 0.00 in0.0 mm 0.00 in0.0 mm 0.00 in0.0 mm
08:50 AM 77.9°F25.5°C 60.9°F16.1°C 56% 3.3 mph SSW5.3 kmh SSW 7.2 mph11.6 kmh 30.07 in1018.3 mb 0.00 in0.0 mm 0.00 in0.0 mm 0.00 in0.0 mm
09:00 AM 78.3°F25.7°C 60.8°F16.0°C 55% 3.5 mph SW5.6 kmh SW 8.6 mph13.8 kmh 30.07 in1018.3 mb 0.00 in0.0 mm 0.00 in0.0 mm 0.00 in0.0 mm
09:10 AM 78.8°F26.0°C 61.3°F16.3°C 55% 3.1 mph SW5.0 kmh SW 7.9 mph12.7 kmh 30.07 in1018.3 mb 0.00 in0.0 mm 0.00 in0.0 mm 0.00 in0.0 mm
09:20 AM 78.3°F25.7°C 60.2°F15.7°C 54% 1.3 mph SW2.1 kmh SW 7.9 mph12.7 kmh 30.09 in1019.0 mb 0.00 in0.0 mm 0.00 in0.0 mm 0.00 in0.0 mm
09:30 AM 78.3°F25.7°C 60.8°F16.0°C 55% 1.6 mph NW2.6 kmh NW 6.1 mph9.8 kmh 30.07 in1018.3 mb 0.00 in0.0 mm 0.00 in0.0 mm 0.00 in0.0 mm
09:40 AM 77.9°F25.5°C 59.9°F15.5°C 54% 3.0 mph WSW4.8 kmh WSW 9.3 mph15.0 kmh 30.07 in1018.3 mb 0.00 in0.0 mm 0.00 in0.0 mm 0.00 in0.0 mm
09:50 AM 77.7°F25.4°C 59.7°F15.4°C 54% 3.0 mph W4.8 kmh W 7.9 mph12.7 kmh 30.04 in1017.3 mb 0.00 in0.0 mm 0.00 in0.0 mm 0.00 in0.0 mm
10:00 AM 77.7°F25.4°C 59.7°F15.4°C 54% 3.4 mph W5.5 kmh W 10.0 mph16.1 kmh 30.04 in1017.3 mb 0.00 in0.0 mm 0.00 in0.0 mm 0.00 in0.0 mm
10:10 AM 76.6°F24.8°C 59.3°F15.2°C 55% 1.8 mph NW2.9 kmh NW 7.2 mph11.6 kmh 30.04 in1017.3 mb 0.00 in0.0 mm 0.00 in0.0 mm 0.00 in0.0 mm
10:20 AM 75.7°F24.3°C 58.9°F14.9°C 56% 1.7 mph WSW2.7 kmh WSW 9.3 mph15.0 kmh 30.04 in1017.3 mb 0.00 in0.0 mm 0.00 in0.0 mm 0.00 in0.0 mm
10:30 AM 75.6°F24.2°C 59.3°F15.2°C 57% 3.6 mph W5.8 kmh W 9.3 mph15.0 kmh 30.07 in1018.3 mb 0.00 in0.0 mm 0.00 in0.0 mm 0.00 in0.0 mm
10:40 AM 75.7°F24.3°C 59.9°F15.5°C 58% 2.4 mph W3.9 kmh W 6.8 mph10.9 kmh 30.07 in1018.3 mb 0.00 in0.0 mm 0.00 in0.0 mm 0.00 in0.0 mm
10:50 AM 75.7°F24.3°C 59.9°F15.5°C 58% 2.5 mph W4.0 kmh W 8.6 mph13.8 kmh 30.07 in1018.3 mb 0.00 in0.0 mm 0.00 in0.0 mm 0.00 in0.0 mm
11:00 AM 76.3°F24.6°C 60.9°F16.1°C 59% 2.3 mph W3.7 kmh W 7.9 mph12.7 kmh 30.07 in1018.3 mb 0.00 in0.0 mm 0.00 in0.0 mm 0.00 in0.0 mm
11:10 AM 76.8°F24.9°C 61.4°F16.3°C 59% 2.5 mph W4.0 kmh W 7.9 mph12.7 kmh 30.07 in1018.3 mb 0.00 in0.0 mm 0.00 in0.0 mm 0.00 in0.0 mm
11:20 AM 76.8°F24.9°C 60.9°F16.1°C 58% 3.7 mph NW6.0 kmh NW 8.6 mph13.8 kmh 30.07 in1018.3 mb 0.00 in0.0 mm 0.00 in0.0 mm 0.00 in0.0 mm
11:30 AM 76.3°F24.6°C 60.9°F16.1°C 59% 2.1 mph WSW3.4 kmh WSW 7.9 mph12.7 kmh 30.07 in1018.3 mb 0.00 in0.0 mm 0.00 in0.0 mm 0.00 in0.0 mm
11:40 AM 76.1°F24.5°C 61.2°F16.2°C 60% 2.0 mph W3.2 kmh W 6.1 mph9.8 kmh 30.07 in1018.3 mb 0.00 in0.0 mm 0.00 in0.0 mm 0.00 in0.0 mm
11:50 AM 76.5°F24.7°C 62.5°F16.9°C 62% 1.6 mph WSW2.6 kmh WSW 6.1 mph9.8 kmh 30.07 in1018.3 mb 0.00 in0.0 mm 0.00 in0.0 mm 0.00 in0.0 mm
12:00 PM 76.3°F24.6°C 62.3°F16.8°C 62% 2.1 mph NW3.4 kmh NW 6.1 mph9.8 kmh 30.07 in1018.3 mb 0.00 in0.0 mm 0.00 in0.0 mm 0.00 in0.0 mm
12:10 PM 76.8°F24.9°C 62.8°F17.1°C 62% 3.1 mph NW5.0 kmh NW 11.5 mph18.5 kmh 30.07 in1018.3 mb 0.00 in0.0 mm 0.00 in0.0 mm 0.00 in0.0 mm
12:20 PM 78.3°F25.7°C 63.2°F17.3°C 60% 2.6 mph WSW4.2 kmh WSW 7.5 mph12.1 kmh 30.07 in1018.3 mb 0.00 in0.0 mm 0.00 in0.0 mm 0.00 in0.0 mm
12:30 PM 78.3°F25.7°C 63.2°F17.3°C 60% 2.3 mph WNW3.7 kmh WNW 6.1 mph9.8 kmh 30.07 in1018.3 mb 0.00 in0.0 mm 0.00 in0.0 mm 0.00 in0.0 mm
12:40 PM 78.4°F25.8°C 63.9°F17.7°C 61% 3.3 mph WSW5.3 kmh WSW 9.7 mph15.6 kmh 30.07 in1018.3 mb 0.00 in0.0 mm 0.00 in0.0 mm 0.00 in0.0 mm
12:50 PM 78.6°F25.9°C 64.0°F17.8°C 61% 2.9 mph W4.7 kmh W 9.3 mph15.0 kmh 30.07 in1018.3 mb 0.00 in0.0 mm 0.00 in0.0 mm 0.00 in0.0 mm
01:00 PM 78.3°F25.7°C 64.6°F18.1°C 63% 3.1 mph W5.0 kmh W 7.9 mph12.7 kmh 30.09 in1019.0 mb 0.00 in0.0 mm 0.00 in0.0 mm 0.00 in0.0 mm
01:10 PM 78.6°F25.9°C 65.0°F18.3°C 63% 4.0 mph W6.4 kmh W 10.7 mph17.2 kmh 30.09 in1019.0 mb 0.00 in0.0 mm 0.00 in0.0 mm 0.00 in0.0 mm
01:20 PM 78.8°F26.0°C 65.1°F18.4°C 63% 2.9 mph WSW4.7 kmh WSW 6.4 mph10.3 kmh 30.09 in1019.0 mb 0.00 in0.0 mm 0.00 in0.0 mm 0.00 in0.0 mm
01:30 PM 78.3°F25.7°C 64.2°F17.9°C 62% 4.2 mph W6.8 kmh W 11.8 mph19.0 kmh 30.07 in1018.3 mb 0.00 in0.0 mm 0.00 in0.0 mm 0.00 in0.0 mm
01:40 PM 77.5°F25.3°C 63.5°F17.5°C 62% 4.1 mph W6.6 kmh W 14.0 mph22.5 kmh 30.07 in1018.3 mb 0.00 in0.0 mm 0.00 in0.0 mm 0.00 in0.0 mm
01:50 PM 77.2°F25.1°C 64.1°F17.8°C 64% 6.2 mph W10.0 kmh W 13.6 mph21.9 kmh 30.07 in1018.3 mb 0.00 in0.0 mm 0.00 in0.0 mm 0.00 in0.0 mm
02:00 PM 77.2°F25.1°C 64.1°F17.8°C 64% 5.0 mph NW8.0 kmh NW 14.3 mph23.0 kmh 30.07 in1018.3 mb 0.00 in0.0 mm 0.00 in0.0 mm 0.00 in0.0 mm
02:10 PM 76.3°F24.6°C 62.8°F17.1°C 63% 6.5 mph NW10.5 kmh NW 16.5 mph26.6 kmh 30.07 in1018.3 mb 0.00 in0.0 mm 0.00 in0.0 mm 0.00 in0.0 mm
02:20 PM 75.6°F24.2°C 62.5°F16.9°C 64% 6.4 mph NW10.3 kmh NW 13.6 mph21.9 kmh 30.04 in1017.3 mb 0.00 in0.0 mm 0.00 in0.0 mm 0.00 in0.0 mm
02:30 PM 75.2°F24.0°C 61.7°F16.5°C 63% 7.7 mph NW12.4 kmh NW 17.2 mph27.7 kmh 30.07 in1018.3 mb 0.00 in0.0 mm 0.00 in0.0 mm 0.00 in0.0 mm
02:40 PM 74.8°F23.8°C 62.3°F16.8°C 65% 7.5 mph NW12.1 kmh NW 19.0 mph30.6 kmh 30.07 in1018.3 mb 0.00 in0.0 mm 0.00 in0.0 mm 0.00 in0.0 mm
02:50 PM 74.1°F23.4°C 61.6°F16.4°C 65% 7.5 mph NW12.1 kmh NW 16.5 mph26.6 kmh 30.04 in1017.3 mb 0.00 in0.0 mm 0.00 in0.0 mm 0.00 in0.0 mm
03:00 PM 73.8°F23.2°C 60.4°F15.8°C 63% 9.2 mph NW14.8 kmh NW 19.7 mph31.7 kmh 30.04 in1017.3 mb 0.00 in0.0 mm 0.00 in0.0 mm 0.00 in0.0 mm
03:10 PM 73.0°F22.8°C 60.1°F15.6°C 64% 8.1 mph NW13.0 kmh NW 20.0 mph32.2 kmh 30.04 in1017.3 mb 0.00 in0.0 mm 0.00 in0.0 mm 0.00 in0.0 mm
03:20 PM 72.7°F22.6°C 60.7°F15.9°C 66% 9.5 mph NW15.3 kmh NW 19.7 mph31.7 kmh 30.07 in1018.3 mb 0.00 in0.0 mm 0.00 in0.0 mm 0.00 in0.0 mm
03:30 PM 72.5°F22.5°C 60.5°F15.8°C 66% 9.1 mph NW14.6 kmh NW 19.3 mph31.1 kmh 30.04 in1017.3 mb 0.00 in0.0 mm 0.00 in0.0 mm 0.00 in0.0 mm
03:40 PM 72.3°F22.4°C 60.7°F15.9°C 67% 8.3 mph WNW13.4 kmh WNW 25.1 mph40.4 kmh 30.04 in1017.3 mb 0.00 in0.0 mm 0.00 in0.0 mm 0.00 in0.0 mm
03:50 PM 72.1°F22.3°C 60.6°F15.9°C 67% 9.2 mph NW14.8 kmh NW 24.7 mph39.8 kmh 30.07 in1018.3 mb 0.00 in0.0 mm 0.00 in0.0 mm 0.00 in0.0 mm
04:00 PM 72.1°F22.3°C 61.0°F16.1°C 68% 9.4 mph NW15.1 kmh NW 20.0 mph32.2 kmh 30.07 in1018.3 mb 0.00 in0.0 mm 0.00 in0.0 mm 0.00 in0.0 mm
04:10 PM 72.0°F22.2°C 60.4°F15.8°C 67% 9.4 mph WNW15.1 kmh WNW 21.8 mph35.1 kmh 30.07 in1018.3 mb 0.00 in0.0 mm 0.00 in0.0 mm 0.00 in0.0 mm
04:20 PM 72.0°F22.2°C 59.6°F15.3°C 65% 8.6 mph NW13.8 kmh NW 21.8 mph35.1 kmh 30.04 in1017.3 mb 0.00 in0.0 mm 0.00 in0.0 mm 0.00 in0.0 mm
04:30 PM 71.6°F22.0°C 58.8°F14.9°C 64% 8.0 mph NW12.9 kmh NW 20.4 mph32.8 kmh 30.07 in1018.3 mb 0.00 in0.0 mm 0.00 in0.0 mm 0.00 in0.0 mm
04:40 PM 71.4°F21.9°C 58.2°F14.6°C 63% 9.3 mph WNW15.0 kmh WNW 20.8 mph33.5 kmh 30.07 in1018.3 mb 0.00 in0.0 mm 0.00 in0.0 mm 0.00 in0.0 mm
04:50 PM 70.9°F21.6°C 57.7°F14.3°C 63% 10.0 mph NW16.1 kmh NW 26.8 mph43.1 kmh 30.07 in1018.3 mb 0.00 in0.0 mm 0.00 in0.0 mm 0.00 in0.0 mm
05:00 PM 70.5°F21.4°C 57.3°F14.1°C 63% 11.9 mph NW19.2 kmh NW 31.9 mph51.3 kmh 30.07 in1018.3 mb 0.00 in0.0 mm 0.00 in0.0 mm 0.00 in0.0 mm
05:10 PM 70.3°F21.3°C 57.6°F14.2°C 64% 9.8 mph NW15.8 kmh NW 24.7 mph39.8 kmh 30.07 in1018.3 mb 0.00 in0.0 mm 0.00 in0.0 mm 0.00 in0.0 mm
05:20 PM 70.0°F21.1°C 58.1°F14.5°C 66% 9.8 mph NW15.8 kmh NW 25.1 mph40.4 kmh 30.07 in1018.3 mb 0.00 in0.0 mm 0.00 in0.0 mm 0.00 in0.0 mm
05:30 PM 69.4°F20.8°C 58.0°F14.4°C 67% 9.3 mph NNW15.0 kmh NNW 24.7 mph39.8 kmh 30.07 in1018.3 mb 0.00 in0.0 mm 0.00 in0.0 mm 0.00 in0.0 mm
05:40 PM 69.3°F20.7°C 57.8°F14.3°C 67% 8.3 mph NW13.4 kmh NW 23.6 mph38.0 kmh 30.07 in1018.3 mb 0.00 in0.0 mm 0.00 in0.0 mm 0.00 in0.0 mm
05:50 PM 68.4°F20.2°C 57.4°F14.1°C 68% 12.9 mph NNW20.8 kmh NNW 27.6 mph44.4 kmh 30.07 in1018.3 mb 0.00 in0.0 mm 0.00 in0.0 mm 0.00 in0.0 mm
06:00 PM 67.3°F19.6°C 57.2°F14.0°C 70% 8.0 mph NW12.9 kmh NW 23.3 mph37.5 kmh 30.07 in1018.3 mb 0.00 in0.0 mm 0.00 in0.0 mm 0.00 in0.0 mm
06:10 PM 67.5°F19.7°C 58.5°F14.7°C 73% 6.9 mph WNW11.1 kmh WNW 17.5 mph28.2 kmh 30.07 in1018.3 mb 0.00 in0.0 mm 0.00 in0.0 mm 0.00 in0.0 mm
06:20 PM 67.5°F19.7°C 58.9°F14.9°C 74% 7.5 mph WNW12.1 kmh WNW 17.5 mph28.2 kmh 30.07 in1018.3 mb 0.00 in0.0 mm 0.00 in0.0 mm 0.00 in0.0 mm
06:30 PM 67.3°F19.6°C 59.1°F15.1°C 75% 7.2 mph WNW11.6 kmh WNW 13.6 mph21.9 kmh 30.09 in1019.0 mb 0.00 in0.0 mm 0.00 in0.0 mm 0.00 in0.0 mm
06:40 PM 66.9°F19.4°C 58.7°F14.8°C 75% 7.3 mph WNW11.7 kmh WNW 16.5 mph26.6 kmh 30.09 in1019.0 mb 0.00 in0.0 mm 0.00 in0.0 mm 0.00 in0.0 mm
06:50 PM 66.7°F19.3°C 58.9°F14.9°C 76% 6.2 mph WNW10.0 kmh WNW 14.0 mph22.5 kmh 30.09 in1019.0 mb 0.00 in0.0 mm 0.00 in0.0 mm 0.00 in0.0 mm
07:00 PM 66.2°F19.0°C 58.8°F14.9°C 77% 6.0 mph NW9.7 kmh NW 20.0 mph32.2 kmh 30.07 in1018.3 mb 0.00 in0.0 mm 0.00 in0.0 mm 0.00 in0.0 mm
07:10 PM 66.0°F18.9°C 59.0°F15.0°C 78% 5.7 mph WNW9.2 kmh WNW 14.3 mph23.0 kmh 30.07 in1018.3 mb 0.00 in0.0 mm 0.00 in0.0 mm 0.00 in0.0 mm
07:20 PM 65.8°F18.8°C 58.8°F14.9°C 78% 5.7 mph NW9.2 kmh NW 12.5 mph20.1 kmh 30.07 in1018.3 mb 0.00 in0.0 mm 0.00 in0.0 mm 0.00 in0.0 mm
07:30 PM 65.8°F18.8°C 58.8°F14.9°C 78% 5.9 mph NW9.5 kmh NW 12.9 mph20.8 kmh 30.09 in1019.0 mb 0.00 in0.0 mm 0.00 in0.0 mm 0.00 in0.0 mm
07:40 PM 65.8°F18.8°C 58.8°F14.9°C 78% 5.9 mph NW9.5 kmh NW 11.8 mph19.0 kmh 30.09 in1019.0 mb 0.00 in0.0 mm 0.00 in0.0 mm 0.00 in0.0 mm
07:50 PM 65.5°F18.6°C 58.8°F14.9°C 79% 4.5 mph NW7.2 kmh NW 16.1 mph25.9 kmh 30.09 in1019.0 mb 0.00 in0.0 mm 0.00 in0.0 mm 0.00 in0.0 mm
08:00 PM 65.3°F18.5°C 58.6°F14.8°C 79% 3.9 mph NW6.3 kmh NW 11.5 mph18.5 kmh 30.07 in1018.3 mb 0.00 in0.0 mm 0.00 in0.0 mm 0.00 in0.0 mm
08:10 PM 65.3°F18.5°C 59.0°F15.0°C 80% 5.5 mph WNW8.9 kmh WNW 12.9 mph20.8 kmh 30.07 in1018.3 mb 0.00 in0.0 mm 0.00 in0.0 mm 0.00 in0.0 mm
08:20 PM 65.1°F18.4°C 58.8°F14.9°C 80% 3.6 mph WNW5.8 kmh WNW 10.0 mph16.1 kmh 30.07 in1018.3 mb 0.00 in0.0 mm 0.00 in0.0 mm 0.00 in0.0 mm
08:30 PM 64.8°F18.2°C 58.4°F14.7°C 80% 2.6 mph WNW4.2 kmh WNW 10.0 mph16.1 kmh 30.07 in1018.3 mb 0.00 in0.0 mm 0.00 in0.0 mm 0.00 in0.0 mm
08:40 PM 64.4°F18.0°C 59.1°F15.1°C 83% 4.1 mph WNW6.6 kmh WNW 10.4 mph16.7 kmh 30.07 in1018.3 mb 0.00 in0.0 mm 0.00 in0.0 mm 0.00 in0.0 mm
08:50 PM 64.2°F17.9°C 58.9°F14.9°C 83% 4.4 mph NW7.1 kmh NW 16.1 mph25.9 kmh 30.07 in1018.3 mb 0.00 in0.0 mm 0.00 in0.0 mm 0.00 in0.0 mm
09:00 PM 63.9°F17.7°C 57.6°F14.2°C 80% 5.1 mph NW8.2 kmh NW 13.6 mph21.9 kmh 30.07 in1018.3 mb 0.00 in0.0 mm 0.00 in0.0 mm 0.00 in0.0 mm
09:10 PM 63.3°F17.4°C 57.0°F13.9°C 80% 5.6 mph W9.0 kmh W 12.2 mph19.6 kmh 30.07 in1018.3 mb 0.00 in0.0 mm 0.00 in0.0 mm 0.00 in0.0 mm
09:20 PM 63.0°F17.2°C 57.0°F13.9°C 81% 4.6 mph W7.4 kmh W 12.9 mph20.8 kmh 30.09 in1019.0 mb 0.00 in0.0 mm 0.00 in0.0 mm 0.00 in0.0 mm
09:30 PM 62.6°F17.0°C 56.7°F13.7°C 81% 3.9 mph WNW6.3 kmh WNW 10.4 mph16.7 kmh 30.09 in1019.0 mb 0.00 in0.0 mm 0.00 in0.0 mm 0.00 in0.0 mm
09:40 PM 62.6°F17.0°C 57.4°F14.1°C 83% 5.2 mph WNW8.4 kmh WNW 11.5 mph18.5 kmh 30.09 in1019.0 mb 0.00 in0.0 mm 0.00 in0.0 mm 0.00 in0.0 mm
09:50 PM 62.4°F16.9°C 57.5°F14.2°C 84% 4.6 mph WNW7.4 kmh WNW 10.7 mph17.2 kmh 30.09 in1019.0 mb 0.00 in0.0 mm 0.00 in0.0 mm 0.00 in0.0 mm
10:00 PM 62.2°F16.8°C 57.7°F14.3°C 85% 4.9 mph WNW7.9 kmh WNW 11.8 mph19.0 kmh 30.09 in1019.0 mb 0.00 in0.0 mm 0.00 in0.0 mm 0.00 in0.0 mm
10:10 PM 62.2°F16.8°C 57.7°F14.3°C 85% 3.6 mph NW5.8 kmh NW 12.2 mph19.6 kmh 30.09 in1019.0 mb 0.00 in0.0 mm 0.00 in0.0 mm 0.00 in0.0 mm
10:20 PM 62.4°F16.9°C 57.8°F14.3°C 85% 4.6 mph WNW7.4 kmh WNW 15.7 mph25.3 kmh 30.09 in1019.0 mb 0.00 in0.0 mm 0.00 in0.0 mm 0.00 in0.0 mm
10:30 PM 62.4°F16.9°C 58.2°F14.6°C 86% 4.4 mph WNW7.1 kmh WNW 10.7 mph17.2 kmh 30.09 in1019.0 mb 0.00 in0.0 mm 0.00 in0.0 mm 0.00 in0.0 mm
10:40 PM 62.4°F16.9°C 57.8°F14.3°C 85% 5.7 mph WNW9.2 kmh WNW 12.5 mph20.1 kmh 30.09 in1019.0 mb 0.00 in0.0 mm 0.00 in0.0 mm 0.00 in0.0 mm
10:50 PM 62.4°F16.9°C 57.8°F14.3°C 85% 4.9 mph WNW7.9 kmh WNW 11.8 mph19.0 kmh 30.09 in1019.0 mb 0.00 in0.0 mm 0.00 in0.0 mm 0.00 in0.0 mm
11:00 PM 62.4°F16.9°C 57.8°F14.3°C 85% 4.7 mph WNW7.6 kmh WNW 12.5 mph20.1 kmh 30.09 in1019.0 mb 0.00 in0.0 mm 0.00 in0.0 mm 0.00 in0.0 mm
11:10 PM 62.4°F16.9°C 57.8°F14.3°C 85% 3.6 mph WNW5.8 kmh WNW 8.9 mph14.3 kmh 30.09 in1019.0 mb 0.00 in0.0 mm 0.00 in0.0 mm 0.00 in0.0 mm
11:20 PM 62.2°F16.8°C 57.7°F14.3°C 85% 5.3 mph WNW8.5 kmh WNW 27.2 mph43.8 kmh 30.09 in1019.0 mb 0.00 in0.0 mm 0.00 in0.0 mm 0.00 in0.0 mm
11:30 PM 62.1°F16.7°C 57.2°F14.0°C 84% 6.1 mph WNW9.8 kmh WNW 16.8 mph27.0 kmh 30.09 in1019.0 mb 0.00 in0.0 mm 0.00 in0.0 mm 0.00 in0.0 mm
11:40 PM 61.9°F16.6°C 56.7°F13.7°C 83% 6.4 mph WNW10.3 kmh WNW 12.5 mph20.1 kmh 30.09 in1019.0 mb 0.00 in0.0 mm 0.00 in0.0 mm 0.00 in0.0 mm
11:50 PM 61.9°F16.6°C 56.7°F13.7°C 83% 5.8 mph W9.3 kmh W 16.1 mph25.9 kmh 30.09 in1019.0 mb 0.00 in0.0 mm 0.00 in0.0 mm 0.00 in0.0 mm